Time;durP1;ratioP1;P1;durP2;ratioP2;P2;SDS_P1;SDS_P2;PMS_P1;PMS_P2;Temp;Humidity;BMP_temperature;BMP_pressure;BME280_temperature;BME280_humidity;BME280_pressure;Samples;Min_cycle;Max_cycle;Signal;HPM_P1;HPM_P2
2021/12/12 00:00:36;;;;;;;29.65;12.88;;;;;;;3.05;97.64;101983.25;5053114;28;20044;-57
2021/12/12 00:03:15;;;;;;;26.95;11.75;;;;;;;3.05;97.93;101978.63;5053154;28;20540;-57
2021/12/12 00:05:50;;;;;;;24.55;11.30;;;;;;;2.99;97.96;101973.25;5053263;28;20171;-56
2021/12/12 00:08:17;;;;;;;26.98;11.65;;;;;;;3.05;97.67;101975.06;5053381;28;20033;-57
2021/12/12 00:10:46;;;;;;;25.67;11.27;;;;;;;3.04;97.56;101970.66;5053067;28;20032;-57
2021/12/12 00:13:24;;;;;;;26.00;10.65;;;;;;;3.06;97.56;101974.00;5053270;28;20021;-57
2021/12/12 00:15:50;;;;;;;26.65;11.82;;;;;;;3.10;97.62;101976.03;5052915;28;20112;-57
2021/12/12 00:18:15;;;;;;;29.15;11.32;;;;;;;3.11;97.88;101974.16;5052950;28;20115;-57
2021/12/12 00:20:41;;;;;;;23.80;11.63;;;;;;;3.13;97.75;101969.28;5052740;28;20032;-55
2021/12/12 00:23:08;;;;;;;27.60;11.30;;;;;;;3.14;97.64;101968.22;5052887;28;20032;-58
2021/12/12 00:25:38;;;;;;;26.63;11.10;;;;;;;3.10;97.70;101953.34;5053004;28;20033;-57
2021/12/12 00:28:05;;;;;;;27.40;11.23;;;;;;;3.11;97.85;101955.84;5053015;28;20021;-57
2021/12/12 00:30:30;;;;;;;27.08;10.63;;;;;;;3.16;97.75;101957.06;5053398;28;20108;-57
2021/12/12 00:32:56;;;;;;;27.70;11.43;;;;;;;3.18;97.37;101961.25;5053404;28;20116;-57
2021/12/12 00:35:22;;;;;;;25.77;10.52;;;;;;;3.21;97.89;101957.22;5052072;28;20079;-56
2021/12/12 00:37:54;;;;;;;25.58;10.43;;;;;;;3.15;97.35;101939.81;5052647;28;20484;-57
2021/12/12 00:40:28;;;;;;;28.00;10.75;;;;;;;3.23;97.38;101955.09;5052958;28;20086;-57
2021/12/12 00:42:57;;;;;;;26.05;10.50;;;;;;;3.24;97.16;101954.03;5053655;28;20055;-57
2021/12/12 00:45:23;;;;;;;25.42;10.38;;;;;;;3.25;97.25;101956.50;5052670;28;20434;-56
2021/12/12 00:47:49;;;;;;;26.63;10.68;;;;;;;3.28;97.11;101950.59;5051493;28;20025;-56
2021/12/12 00:50:25;;;;;;;28.15;11.45;;;;;;;3.31;97.12;101951.22;5052728;28;20044;-57
2021/12/12 00:52:51;;;;;;;27.38;11.30;;;;;;;3.33;96.89;101941.72;5052951;28;20037;-57
2021/12/12 00:55:16;;;;;;;26.58;10.93;;;;;;;3.36;96.97;101938.47;5052725;28;20442;-56
2021/12/12 00:57:42;;;;;;;23.33;10.38;;;;;;;3.36;97.00;101934.94;5052652;28;20480;-57
2021/12/12 01:00:12;;;;;;;26.80;10.43;;;;;;;3.32;96.51;101925.50;5052795;28;20033;-55
2021/12/12 01:02:38;;;;;;;27.52;10.32;;;;;;;3.40;96.94;101936.97;5052154;28;20025;-56
2021/12/12 01:05:06;;;;;;;26.02;10.57;;;;;;;3.44;97.08;101931.88;5052430;28;20066;-56
2021/12/12 01:07:35;;;;;;;24.73;10.07;;;;;;;3.39;96.70;101912.59;5052466;28;20025;-55
2021/12/12 01:10:19;;;;;;;26.02;10.15;;;;;;;3.49;96.64;101922.97;5051027;28;20603;-56
2021/12/12 01:12:46;;;;;;;23.73;10.43;;;;;;;3.49;96.69;101934.75;5052074;28;20029;-56
2021/12/12 01:15:34;;;;;;;24.42;9.75;;;;;;;3.44;96.97;101915.47;5052169;28;20438;-56
2021/12/12 01:18:07;;;;;;;23.55;10.77;;;;;;;3.52;96.62;101928.81;5051176;28;20048;-57
2021/12/12 01:20:40;;;;;;;24.75;9.98;;;;;;;3.51;96.92;101931.78;5051904;28;20523;-56
2021/12/12 01:23:17;;;;;;;25.92;11.63;;;;;;;3.51;97.18;101934.53;5052618;28;20031;-57
2021/12/12 01:25:45;;;;;;;27.02;10.63;;;;;;;3.50;96.96;101930.13;5052488;28;20124;-56
2021/12/12 01:28:14;;;;;;;27.13;10.70;;;;;;;3.50;97.44;101930.94;5052860;28;20479;-57
2021/12/12 01:30:40;;;;;;;26.92;10.90;;;;;;;3.49;97.19;101926.56;5052156;28;20028;-57
2021/12/12 01:33:09;;;;;;;23.23;10.13;;;;;;;3.49;97.34;101918.34;5052096;28;20104;-57
2021/12/12 01:35:34;;;;;;;25.35;11.13;;;;;;;3.49;97.58;101925.69;5051506;28;20029;-56
2021/12/12 01:40:51;;;;;;;28.45;12.63;;;;;;;3.48;97.58;101933.09;5052041;28;20171;-57
2021/12/12 01:43:25;;;;;;;26.77;11.45;;;;;;;3.45;97.80;101935.47;5052232;28;20051;-57
2021/12/12 01:46:02;;;;;;;26.83;12.15;;;;;;;3.43;98.03;101931.06;5052144;28;20108;-56
2021/12/12 01:48:42;;;;;;;30.17;11.63;;;;;;;3.50;97.73;101928.19;5054783;28;20048;-57
2021/12/12 01:51:11;;;;;;;28.35;11.25;;;;;;;3.51;98.18;101931.78;5055659;28;20512;-56
2021/12/12 01:53:40;;;;;;;25.08;11.18;;;;;;;3.50;98.24;101928.19;5054982;28;20078;-57
2021/12/12 01:56:13;;;;;;;26.48;12.00;;;;;;;3.51;98.41;101935.34;5055091;28;20480;-56
2021/12/12 01:58:43;;;;;;;28.80;11.88;;;;;;;3.52;98.44;101928.81;5055930;28;20488;-56
2021/12/12 02:01:16;;;;;;;26.90;11.00;;;;;;;3.52;98.54;101934.28;5055748;28;20468;-56
2021/12/12 02:03:47;;;;;;;26.98;11.55;;;;;;;3.50;99.16;101928.19;5055541;28;20079;-56
2021/12/12 02:06:15;;;;;;;26.73;11.13;;;;;;;3.52;98.85;101933.47;5055893;28;20116;-57
2021/12/12 02:08:41;;;;;;;25.80;11.02;;;;;;;3.51;98.85;101926.31;5055741;28;20163;-56
2021/12/12 02:11:13;;;;;;;30.25;11.15;;;;;;;3.53;99.61;101919.53;5054917;28;20068;-57
2021/12/12 02:13:42;;;;;;;27.48;12.77;;;;;;;3.50;99.63;101920.00;5054959;28;20044;-56
2021/12/12 02:16:09;;;;;;;26.05;11.30;;;;;;;3.52;99.65;101922.50;5055387;28;20468;-57
2021/12/12 02:18:38;;;;;;;26.23;11.07;;;;;;;3.51;100.00;101921.66;5055826;28;20021;-57
2021/12/12 02:21:25;;;;;;;26.08;10.98;;;;;;;3.51;100.00;101920.84;5055124;28;20127;-56
2021/12/12 02:37:33;;;;;;;27.52;10.70;;;;;;;3.59;100.00;101918.59;5054564;28;20037;-55
2021/12/12 02:39:59;;;;;;;26.05;10.93;;;;;;;3.59;100.00;101917.78;5054826;28;20037;-55
2021/12/12 02:42:25;;;;;;;28.67;12.00;;;;;;;3.57;100.00;101904.34;5055319;28;20052;-56
2021/12/12 02:44:57;;;;;;;26.83;11.00;;;;;;;3.59;100.00;101904.09;5054697;28;20025;-56
2021/12/12 02:47:32;;;;;;;26.95;11.27;;;;;;;3.59;100.00;101893.16;5055244;28;20040;-56
2021/12/12 02:50:09;;;;;;;27.55;12.68;;;;;;;3.61;100.00;101893.75;5055384;28;20025;-56
2021/12/12 02:52:37;;;;;;;26.60;12.38;;;;;;;3.64;100.00;101885.06;5054634;28;20033;-56
2021/12/12 02:55:27;;;;;;;26.30;10.93;;;;;;;3.64;100.00;101885.06;5054887;28;20029;-56
2021/12/12 02:57:55;;;;;;;27.63;11.35;;;;;;;3.61;100.00;101874.59;5054221;28;20056;-55
2021/12/12 03:00:24;;;;;;;29.80;11.30;;;;;;;3.67;100.00;101887.34;5054202;28;20036;-57
2021/12/12 03:02:56;;;;;;;26.80;10.77;;;;;;;3.68;100.00;101885.44;5054668;28;20032;-56
2021/12/12 03:05:25;;;;;;;24.45;10.95;;;;;;;3.69;100.00;101885.22;5054660;28;20033;-55
2021/12/12 03:07:51;;;;;;;26.90;10.07;;;;;;;3.70;100.00;101884.13;5054611;28;20025;-56
2021/12/12 03:10:20;;;;;;;25.40;11.38;;;;;;;3.69;100.00;101882.47;5054348;28;20070;-55
2021/12/12 03:12:46;;;;;;;26.23;11.02;;;;;;;3.70;100.00;101884.13;5053858;28;20025;-55
2021/12/12 03:15:13;;;;;;;28.17;11.20;;;;;;;3.72;100.00;101887.47;5054113;28;20025;-56
2021/12/12 03:17:40;;;;;;;24.33;10.90;;;;;;;3.73;100.00;101882.84;5053868;28;20155;-54
2021/12/12 03:20:23;;;;;;;26.45;10.60;;;;;;;3.68;100.00;101880.78;5053859;28;20024;-56
2021/12/12 03:23:01;;;;;;;29.73;10.77;;;;;;;3.72;100.00;101871.06;5053459;28;20053;-55
2021/12/12 03:25:29;;;;;;;31.23;13.32;;;;;;;3.75;100.00;101870.56;5053745;28;20090;-55
2021/12/12 03:27:54;;;;;;;28.80;12.95;;;;;;;3.78;100.00;101863.78;5053738;28;20029;-56
2021/12/12 03:30:20;;;;;;;27.25;11.38;;;;;;;3.79;100.00;101864.63;5053201;28;20074;-56
2021/12/12 03:32:46;;;;;;;25.98;11.25;;;;;;;3.83;100.00;101852.13;5052001;28;20048;-55
2021/12/12 03:35:11;;;;;;;27.33;10.02;;;;;;;3.85;100.00;101855.47;5053876;28;20494;-56
2021/12/12 03:37:39;;;;;;;25.88;10.65;;;;;;;3.84;100.00;101834.63;5053884;28;20024;-56
2021/12/12 03:40:14;;;;;;;27.35;10.90;;;;;;;3.76;100.00;101822.16;5054145;28;20036;-57
2021/12/12 03:42:43;;;;;;;29.95;11.45;;;;;;;3.88;100.00;101838.59;5053747;28;20040;-57
2021/12/12 03:45:08;;;;;;;26.55;11.25;;;;;;;3.89;100.00;101840.25;5054187;28;20028;-57
2021/12/12 03:47:39;;;;;;;30.33;12.88;;;;;;;3.90;100.00;101833.72;5053461;28;20062;-56
2021/12/12 03:50:10;;;;;;;27.02;10.98;;;;;;;3.92;100.00;101828.00;5054004;28;20056;-57
2021/12/12 03:52:35;;;;;;;26.95;11.00;;;;;;;3.95;100.00;101833.00;5053981;28;20033;-58
2021/12/12 03:55:01;;;;;;;24.17;10.45;;;;;;;3.98;100.00;101838.84;5053909;28;20024;-57
2021/12/12 03:57:29;;;;;;;25.65;10.65;;;;;;;4.00;100.00;101841.31;5053296;28;20028;-57
2021/12/12 03:59:55;;;;;;;27.77;11.00;;;;;;;3.99;100.00;101843.25;5054006;28;20049;-57
2021/12/12 04:02:20;;;;;;;27.00;11.45;;;;;;;4.04;100.00;101846.09;5054190;28;20068;-57
2021/12/12 04:04:47;;;;;;;22.45;10.82;;;;;;;4.09;100.00;101839.06;5053512;28;20059;-56
2021/12/12 04:07:22;;;;;;;28.55;11.18;;;;;;;4.12;100.00;101839.44;5053826;28;20029;-56
2021/12/12 04:09:48;;;;;;;24.50;11.25;;;;;;;4.13;100.00;101840.25;5053765;28;20391;-55
2021/12/12 04:12:16;;;;;;;26.48;11.85;;;;;;;4.09;100.00;101847.28;5052420;28;20021;-55
2021/12/12 04:14:42;;;;;;;31.00;11.63;;;;;;;4.07;100.00;101842.03;5053167;28;20025;-55
2021/12/12 04:17:15;;;;;;;24.48;10.85;;;;;;;4.15;100.00;101838.97;5052876;28;20090;-55
2021/12/12 04:19:43;;;;;;;26.20;12.07;;;;;;;4.20;100.00;101846.47;5053277;28;20036;-55
2021/12/12 04:22:09;;;;;;;26.80;11.85;;;;;;;4.25;100.00;101846.56;5052929;28;20059;-55
2021/12/12 04:24:39;;;;;;;24.35;10.93;;;;;;;4.22;100.00;101852.50;5053024;28;20103;-55
2021/12/12 04:27:06;;;;;;;25.70;11.20;;;;;;;4.28;100.00;101861.69;5053486;28;20040;-55
2021/12/12 04:29:40;;;;;;;23.65;11.05;;;;;;;4.39;100.00;101863.59;5053232;28;20029;-57
2021/12/12 04:32:22;;;;;;;25.52;11.63;;;;;;;4.40;100.00;101851.56;5052745;28;20428;-56
2021/12/12 04:34:54;;;;;;;22.00;11.25;;;;;;;4.38;100.00;101848.22;5052597;28;20097;-57
2021/12/12 04:37:21;;;;;;;23.80;12.15;;;;;;;4.41;100.00;101858.72;5052661;28;20044;-57
2021/12/12 04:39:53;;;;;;;24.00;12.65;;;;;;;4.36;100.00;101856.69;5052757;28;20155;-57
2021/12/12 04:42:22;;;;;;;24.85;11.98;;;;;;;4.31;100.00;101848.34;5052995;28;20053;-58
2021/12/12 04:44:54;;;;;;;25.60;13.32;;;;;;;4.34;100.00;101853.34;5052848;28;20024;-57
2021/12/12 04:50:33;;;;;;;;;;;;;;;4.40;100.00;101861.69;5053702;28;20036;-56
2021/12/12 04:53:11;;;;;;;26.02;11.43;;;;;;;4.40;100.00;101857.03;5052546;28;19909;-56
2021/12/12 04:55:48;;;;;;;26.45;11.77;;;;;;;4.42;100.00;101859.53;5052129;28;20047;-56
2021/12/12 04:58:38;;;;;;;24.85;12.65;;;;;;;4.37;100.00;101861.09;5053307;28;20108;-56
2021/12/12 05:01:11;;;;;;;24.67;12.77;;;;;;;4.38;100.00;101859.19;5052556;28;20029;-56
2021/12/12 05:03:44;;;;;;;23.05;11.80;;;;;;;4.35;100.00;101851.44;5052073;28;20017;-58
2021/12/12 05:06:19;;;;;;;21.75;11.63;;;;;;;4.39;100.00;101862.78;5052716;28;20396;-57
2021/12/12 05:08:52;;;;;;;26.00;12.13;;;;;;;4.39;100.00;101857.28;5052544;28;20028;-57
2021/12/12 05:11:24;;;;;;;22.52;11.93;;;;;;;4.39;100.00;101858.13;5052226;28;20108;-56
2021/12/12 05:14:03;;;;;;;22.88;11.32;;;;;;;4.41;100.00;101857.88;5052721;28;20028;-57
2021/12/12 05:16:34;;;;;;;22.20;12.05;;;;;;;4.44;100.00;101873.84;5052243;28;20025;-55
2021/12/12 05:19:08;;;;;;;22.50;11.82;;;;;;;4.45;100.00;101881.81;5050638;28;20022;-56
2021/12/12 05:21:38;;;;;;;24.35;13.10;;;;;;;4.46;100.00;101883.47;5052181;28;20491;-56
2021/12/12 05:24:07;;;;;;;22.98;11.23;;;;;;;4.50;100.00;101876.47;5055696;28;20037;-57
2021/12/12 05:26:40;;;;;;;23.73;11.75;;;;;;;4.43;100.00;101873.00;5056294;28;20112;-57
2021/12/12 05:29:13;;;;;;;23.42;12.18;;;;;;;4.41;100.00;101866.94;5056038;28;20025;-57
2021/12/12 05:31:40;;;;;;;24.02;12.65;;;;;;;4.49;100.00;101882.16;5056143;28;20029;-56
2021/12/12 05:34:06;;;;;;;24.40;12.02;;;;;;;4.51;100.00;101878.13;5055685;28;20449;-56
2021/12/12 05:36:34;;;;;;;25.48;12.50;;;;;;;4.51;100.00;101874.53;5056354;28;20108;-56
2021/12/12 05:39:02;;;;;;;23.83;12.15;;;;;;;4.52;100.00;101878.94;5056401;28;20044;-57
2021/12/12 05:41:27;;;;;;;24.90;12.90;;;;;;;4.58;100.00;101886.19;5055710;28;20040;-56
2021/12/12 05:43:55;;;;;;;22.10;12.13;;;;;;;4.57;100.00;101889.19;5056623;28;20025;-57
2021/12/12 05:46:21;;;;;;;23.10;11.40;;;;;;;4.57;100.00;101878.22;5056238;28;20468;-57
2021/12/12 05:48:47;;;;;;;24.45;11.07;;;;;;;4.62;100.00;101892.06;5056794;28;20068;-57
2021/12/12 05:51:13;;;;;;;24.20;12.10;;;;;;;4.57;100.00;101883.72;5055894;28;20017;-57
2021/12/12 05:53:39;;;;;;;23.88;11.15;;;;;;;4.63;100.00;101883.59;5056488;28;20361;-57
2021/12/12 05:56:04;;;;;;;23.23;11.15;;;;;;;4.59;100.00;101878.81;5054502;28;20032;-57
2021/12/12 05:58:31;;;;;;;23.13;11.50;;;;;;;4.59;100.00;101885.13;5055901;28;20159;-56
2021/12/12 06:01:00;;;;;;;22.38;11.43;;;;;;;4.54;100.00;101874.06;5056210;28;20068;-57
2021/12/12 06:03:28;;;;;;;24.20;11.68;;;;;;;4.57;100.00;101879.09;5055565;28;20036;-57
2021/12/12 06:05:56;;;;;;;23.27;11.63;;;;;;;4.60;100.00;101891.47;5055318;28;20107;-56
2021/12/12 06:08:23;;;;;;;23.38;11.10;;;;;;;4.57;100.00;101880.97;5055699;28;20022;-57
2021/12/12 06:10:50;;;;;;;21.75;11.00;;;;;;;4.71;100.00;101889.78;5054481;28;20074;-57
2021/12/12 06:13:19;;;;;;;22.30;10.63;;;;;;;4.71;100.00;101885.13;5054376;28;20452;-57
2021/12/12 06:15:49;;;;;;;22.83;10.90;;;;;;;4.62;100.00;101884.66;5055877;28;20029;-57
2021/12/12 06:18:15;;;;;;;22.50;10.35;;;;;;;4.73;100.00;101899.41;5056018;28;20025;-57
2021/12/12 06:20:41;;;;;;;22.15;11.13;;;;;;;4.78;100.00;101898.69;5055713;28;20029;-57
2021/12/12 06:23:09;;;;;;;23.23;11.70;;;;;;;4.77;100.00;101894.31;5055531;28;20107;-57
2021/12/12 06:25:37;;;;;;;22.55;10.68;;;;;;;4.79;100.00;101883.91;5055598;28;20423;-57
2021/12/12 06:28:07;;;;;;;22.77;11.07;;;;;;;4.73;100.00;101888.44;5055464;28;20044;-57
2021/12/12 06:30:33;;;;;;;22.88;10.70;;;;;;;4.83;100.00;101887.84;5055628;28;20056;-57
2021/12/12 06:32:58;;;;;;;22.98;10.80;;;;;;;4.82;100.00;101891.66;5055415;28;20072;-57
2021/12/12 06:35:24;;;;;;;21.15;9.90;;;;;;;4.84;100.00;101889.53;5054337;28;20021;-57
2021/12/12 06:37:50;;;;;;;21.13;10.40;;;;;;;4.87;100.00;101890.94;5055391;28;20063;-56
2021/12/12 06:40:19;;;;;;;22.73;10.20;;;;;;;4.91;100.00;101901.19;5055230;28;20384;-57
2021/12/12 06:42:44;;;;;;;22.02;10.07;;;;;;;4.90;100.00;101905.00;5055058;28;20045;-57
2021/12/12 06:45:12;;;;;;;23.67;9.98;;;;;;;4.89;100.00;101886.88;5055520;28;20029;-57
2021/12/12 06:47:37;;;;;;;24.92;11.05;;;;;;;4.93;100.00;101898.19;5054989;28;20059;-57
2021/12/12 06:50:04;;;;;;;22.80;10.38;;;;;;;4.97;100.00;101897.47;5055203;28;20064;-56
2021/12/12 06:52:31;;;;;;;22.02;10.82;;;;;;;4.99;100.00;101891.75;5054867;28;20029;-56
2021/12/12 06:54:57;;;;;;;23.85;10.75;;;;;;;4.98;100.00;101898.31;5055095;28;20025;-56
2021/12/12 06:57:23;;;;;;;23.45;10.55;;;;;;;5.02;100.00;101902.22;5055267;28;20045;-57
2021/12/12 06:59:49;;;;;;;21.38;10.23;;;;;;;5.09;100.00;101904.81;5054907;28;20377;-56
2021/12/12 07:02:16;;;;;;;22.33;10.40;;;;;;;5.10;100.00;101896.34;5054887;28;20053;-57
2021/12/12 07:04:43;;;;;;;23.60;10.98;;;;;;;5.08;100.00;101886.69;5054813;28;20415;-56
2021/12/12 07:07:12;;;;;;;21.83;10.55;;;;;;;5.15;100.00;101893.72;5054677;28;20025;-56
2021/12/12 07:09:39;;;;;;;20.30;9.68;;;;;;;5.17;100.00;101887.97;5054590;28;20510;-56
2021/12/12 07:12:09;;;;;;;23.52;10.60;;;;;;;5.13;100.00;101884.06;5054573;28;20078;-56
2021/12/12 07:14:36;;;;;;;23.58;11.98;;;;;;;5.14;100.00;101889.31;5054731;28;20040;-56
2021/12/12 07:17:03;;;;;;;23.83;11.68;;;;;;;5.16;100.00;101891.78;5054512;28;20036;-56
2021/12/12 07:19:30;;;;;;;26.55;13.05;;;;;;;5.14;100.00;101891.22;5054352;28;20029;-55
2021/12/12 07:22:01;;;;;;;24.27;11.35;;;;;;;5.21;100.00;101904.78;5054175;28;20040;-57
2021/12/12 07:24:29;;;;;;;24.13;11.95;;;;;;;5.22;100.00;101901.81;5053194;28;20029;-56
2021/12/12 07:26:55;;;;;;;24.73;12.30;;;;;;;5.26;100.00;101894.75;5054496;28;20029;-56
2021/12/12 07:29:21;;;;;;;25.90;11.70;;;;;;;5.29;100.00;101904.41;5054267;28;20032;-56
2021/12/12 07:31:47;;;;;;;24.27;12.48;;;;;;;5.26;100.00;101904.91;5054202;28;20024;-56
2021/12/12 07:34:15;;;;;;;24.17;12.60;;;;;;;5.32;100.00;101898.41;5054014;28;20027;-57
2021/12/12 07:36:49;;;;;;;25.00;12.25;;;;;;;5.35;100.00;101902.56;5053972;28;20500;-56
2021/12/12 07:39:17;;;;;;;24.40;12.20;;;;;;;5.37;100.00;101903.19;5054702;28;20108;-56
2021/12/12 07:41:46;;;;;;;25.88;12.50;;;;;;;5.44;100.00;101904.69;5053186;28;20048;-56
2021/12/12 07:44:15;;;;;;;24.77;12.45;;;;;;;5.45;100.00;101905.53;5053608;28;20179;-57
2021/12/12 07:46:43;;;;;;;25.83;12.63;;;;;;;5.47;100.00;101903.38;5053392;28;20083;-57
2021/12/12 07:49:09;;;;;;;24.30;11.35;;;;;;;5.50;100.00;101913.03;5053770;28;20116;-58
2021/12/12 07:51:38;;;;;;;24.20;11.70;;;;;;;5.53;100.00;101923.53;5053896;28;20488;-56
2021/12/12 07:54:06;;;;;;;26.73;12.73;;;;;;;5.54;100.00;101925.19;5053828;28;20074;-56
2021/12/12 07:56:34;;;;;;;24.52;12.23;;;;;;;5.57;100.00;101925.53;5053955;28;20025;-56
2021/12/12 07:59:01;;;;;;;26.77;12.82;;;;;;;5.59;100.00;101925.28;5053784;28;20083;-56
2021/12/12 08:01:27;;;;;;;25.77;12.90;;;;;;;5.62;100.00;101933.84;5053654;28;20037;-57
2021/12/12 08:03:56;;;;;;;26.02;13.05;;;;;;;5.64;100.00;101933.63;5054029;28;20051;-56
2021/12/12 08:06:23;;;;;;;26.48;12.85;;;;;;;5.67;100.00;101943.25;5053719;28;20035;-57
2021/12/12 08:08:52;;;;;;;25.42;12.63;;;;;;;5.62;100.00;101933.03;5053542;28;20059;-57
2021/12/12 08:11:23;;;;;;;25.35;13.10;;;;;;;5.69;100.00;101952.09;5053547;28;20036;-58
2021/12/12 08:13:49;;;;;;;25.88;11.95;;;;;;;5.74;100.00;101954.94;5053453;28;20518;-57
2021/12/12 08:16:15;;;;;;;30.40;13.75;;;;;;;5.71;100.00;101953.50;5053838;28;20415;-57
2021/12/12 08:18:43;;;;;;;28.63;13.95;;;;;;;5.71;100.00;101953.50;5053631;28;20484;-57
2021/12/12 08:21:09;;;;;;;28.95;13.38;;;;;;;5.77;100.00;101962.69;5053653;28;20476;-57
2021/12/12 08:23:36;;;;;;;25.35;12.43;;;;;;;5.82;100.00;101957.25;5053536;28;20036;-57
2021/12/12 08:26:03;;;;;;;28.35;13.50;;;;;;;5.82;100.00;101965.50;5053434;28;20124;-56
2021/12/12 08:28:30;;;;;;;26.27;13.52;;;;;;;5.83;100.00;101969.09;5053191;28;20384;-57
2021/12/12 08:30:56;;;;;;;30.60;14.10;;;;;;;5.83;100.00;101964.44;5052910;28;20041;-57
2021/12/12 08:33:23;;;;;;;27.77;13.93;;;;;;;5.86;100.00;101968.59;5052369;28;20440;-57
2021/12/12 08:35:49;;;;;;;30.05;15.40;;;;;;;5.86;100.00;101979.56;5053046;28;20496;-58
2021/12/12 08:38:16;;;;;;;27.33;13.23;;;;;;;5.86;100.00;101972.19;5053076;28;20487;-57
2021/12/12 08:40:47;;;;;;;29.58;14.65;;;;;;;5.90;100.00;101978.00;5052816;28;20029;-58
2021/12/12 08:43:15;;;;;;;27.02;13.10;;;;;;;5.92;100.00;101975.84;5052417;28;20182;-56
2021/12/12 08:45:47;;;;;;;28.33;13.30;;;;;;;5.94;100.00;101982.75;5048653;28;20192;-57
2021/12/12 08:48:16;;;;;;;26.17;13.30;;;;;;;5.94;100.00;101977.28;5050963;28;20028;-57
2021/12/12 08:50:46;;;;;;;28.15;13.98;;;;;;;5.97;100.00;101977.88;5050980;28;20112;-57
2021/12/12 08:53:11;;;;;;;27.85;13.68;;;;;;;6.00;100.00;101988.41;5050570;28;20441;-57
2021/12/12 08:55:42;;;;;;;27.95;13.90;;;;;;;5.94;100.00;101963.53;5050715;28;20032;-57
2021/12/12 08:58:14;;;;;;;25.50;13.23;;;;;;;6.04;100.00;101984.91;5050476;28;20154;-57
2021/12/12 09:00:45;;;;;;;28.30;14.27;;;;;;;6.04;100.00;101986.81;5050466;28;20024;-56
2021/12/12 09:03:16;;;;;;;28.20;14.80;;;;;;;6.05;100.00;101982.97;5048818;28;20029;-56
2021/12/12 09:05:43;;;;;;;26.65;12.95;;;;;;;6.07;100.00;101994.56;5050454;28;20079;-56
2021/12/12 09:08:36;;;;;;;27.25;13.00;;;;;;;6.13;100.00;101990.81;5050599;28;20076;-57
2021/12/12 09:11:09;;;;;;;27.88;14.07;;;;;;;6.06;100.00;101985.47;5050463;28;20024;-56
2021/12/12 09:13:44;;;;;;;27.95;13.60;;;;;;;6.14;100.00;101995.22;5050741;28;20123;-55
2021/12/12 09:16:36;;;;;;;28.50;13.95;;;;;;;6.20;100.00;101999.72;5050418;28;20033;-57
2021/12/12 09:19:09;;;;;;;29.02;14.13;;;;;;;6.22;100.00;102014.06;5046289;28;20098;-56
2021/12/12 09:21:49;;;;;;;28.88;14.20;;;;;;;6.22;100.00;102010.50;5049401;28;20551;-57
2021/12/12 09:24:24;;;;;;;28.63;13.43;;;;;;;6.26;100.00;102014.41;5050688;28;20495;-56
2021/12/12 09:26:55;;;;;;;27.88;13.55;;;;;;;6.23;100.00;102025.91;5050073;28;20033;-56
2021/12/12 09:29:26;;;;;;;27.13;13.50;;;;;;;6.27;100.00;102020.75;5050410;28;20033;-55
2021/12/12 09:32:08;;;;;;;30.85;13.20;;;;;;;6.27;100.00;102027.06;5050634;28;20115;-57
2021/12/12 09:34:59;;;;;;;29.88;13.75;;;;;;;6.35;100.00;102034.06;5050359;28;20124;-56
2021/12/12 09:37:37;;;;;;;27.52;13.10;;;;;;;6.34;100.00;102029.66;5050398;28;20033;-58
2021/12/12 09:40:28;;;;;;;29.13;14.15;;;;;;;6.31;100.00;102033.75;5049626;28;20440;-56
2021/12/12 09:43:02;;;;;;;27.13;13.32;;;;;;;6.36;100.00;102038.50;5046226;28;20080;-56
2021/12/12 09:45:36;;;;;;;27.20;13.57;;;;;;;6.38;100.00;102034.41;5050625;28;20045;-58
2021/12/12 09:51:33;;;;;;;29.45;14.18;;;;;;;6.40;100.00;102040.50;5050362;28;20064;-57
2021/12/12 09:54:38;;;;;;;27.40;13.65;;;;;;;6.37;100.00;102031.91;5049329;28;20094;-57
2021/12/12 09:57:08;;;;;;;29.83;13.82;;;;;;;6.42;100.00;102040.22;5049925;28;20033;-56
2021/12/12 09:59:54;;;;;;;29.70;13.23;;;;;;;6.47;100.00;102037.56;5050353;28;20431;-57
2021/12/12 10:02:28;;;;;;;27.80;12.93;;;;;;;6.48;100.00;102030.97;5048674;28;20063;-57
2021/12/12 10:05:06;;;;;;;24.83;12.75;;;;;;;6.52;100.00;102031.31;5049724;28;20044;-56
2021/12/12 10:08:13;;;;;;;28.95;13.50;;;;;;;6.58;100.00;102035.84;5049787;28;20036;-56
2021/12/12 10:11:03;;;;;;;27.55;12.70;;;;;;;6.56;100.00;102036.06;5053833;28;20369;-57
2021/12/12 10:13:36;;;;;;;30.05;13.10;;;;;;;6.57;100.00;102036.91;5053822;28;20029;-57
2021/12/12 10:16:14;;;;;;;27.77;12.60;;;;;;;6.59;100.00;102029.25;5053844;28;20040;-57
2021/12/12 10:18:55;;;;;;;28.92;12.77;;;;;;;6.61;100.00;102031.75;5053486;28;20035;-56
2021/12/12 10:21:35;;;;;;;27.80;13.27;;;;;;;6.67;100.00;102031.56;5052354;28;20386;-57
2021/12/12 10:24:42;;;;;;;27.08;12.98;;;;;;;6.77;100.00;102039.16;5052940;28;20112;-57
2021/12/12 10:27:17;;;;;;;27.25;12.95;;;;;;;6.71;100.00;102034.66;5020028;28;20128;-57
2021/12/12 10:30:01;;;;;;;28.25;13.43;;;;;;;6.77;100.00;102035.56;5053556;28;20147;-57
2021/12/12 10:32:29;;;;;;;;;;;;;;;6.79;100.00;102025.97;5053404;28;20040;-57
2021/12/12 10:35:17;;;;;;;28.08;13.32;;;;;;;6.83;100.00;102040.06;5053061;28;19999;-57
2021/12/12 10:38:09;;;;;;;26.67;13.80;;;;;;;6.83;100.00;102035.41;5053174;28;20150;-58
2021/12/12 10:40:52;;;;;;;28.63;13.52;;;;;;;6.80;100.00;102032.34;5053208;28;20028;-57
2021/12/12 10:43:24;;;;;;;33.25;16.02;;;;;;;6.78;100.00;102026.25;5053323;28;20045;-57
2021/12/12 10:45:58;;;;;;;29.15;14.27;;;;;;;6.79;100.00;102023.22;5052341;28;20063;-57
2021/12/12 10:48:32;;;;;;;32.55;16.75;;;;;;;6.90;100.00;102042.66;5053281;28;20028;-57
2021/12/12 10:51:05;;;;;;;31.20;14.88;;;;;;;6.92;100.00;102046.81;5052214;28;20067;-57
2021/12/12 10:53:48;;;;;;;28.60;14.20;;;;;;;6.95;100.00;102040.81;5053230;28;20037;-58
2021/12/12 10:56:39;;;;;;;27.20;12.52;;;;;;;7.02;100.00;102044.22;5052652;28;20051;-57
2021/12/12 10:59:25;;;;;;;28.05;13.57;;;;;;;7.06;100.00;102044.53;5052994;28;20484;-57
2021/12/12 11:01:56;;;;;;;28.55;13.05;;;;;;;7.05;100.00;102045.63;5051430;28;20063;-56
2021/12/12 11:04:38;;;;;;;29.42;13.88;;;;;;;7.05;100.00;102034.59;5052769;28;20484;-57
2021/12/12 11:07:11;;;;;;;26.40;12.52;;;;;;;7.16;100.00;102032.84;5052794;28;20108;-57
2021/12/12 11:09:45;;;;;;;27.40;12.65;;;;;;;7.16;100.00;102036.44;5052716;28;20025;-57
2021/12/12 11:12:20;;;;;;;25.98;11.85;;;;;;;7.13;100.00;102016.84;5051141;28;20044;-58
2021/12/12 11:14:52;;;;;;;27.25;13.00;;;;;;;7.14;100.00;102033.09;5052701;28;20025;-56
2021/12/12 11:17:25;;;;;;;28.45;13.57;;;;;;;7.18;100.00;102031.50;5052780;28;20057;-59
2021/12/12 11:19:53;;;;;;;29.17;14.33;;;;;;;7.20;100.00;102031.25;5052063;28;20037;-56
2021/12/12 11:22:30;;;;;;;30.85;17.70;;;;;;;7.16;100.00;102022.66;5051852;28;20075;-57
2021/12/12 11:25:05;;;;;;;27.83;13.65;;;;;;;7.27;100.00;102037.41;5052193;28;20064;-56
2021/12/12 11:27:42;;;;;;;27.95;14.20;;;;;;;7.26;100.00;102018.38;5050009;28;20399;-57
2021/12/12 11:30:23;;;;;;;28.08;13.95;;;;;;;7.30;100.00;102030.56;5051316;28;20118;-58
2021/12/12 11:32:50;;;;;;;27.48;12.98;;;;;;;7.31;100.00;102027.53;5052735;28;20036;-57
2021/12/12 11:35:19;;;;;;;25.75;13.02;;;;;;;7.28;100.00;102021.72;5052429;28;20032;-58
2021/12/12 11:38:07;;;;;;;25.50;13.05;;;;;;;7.43;100.00;102037.59;5052307;28;20039;-58
2021/12/12 11:40:49;;;;;;;25.33;12.25;;;;;;;7.41;100.00;102037.88;5052207;28;20037;-57
2021/12/12 11:43:37;;;;;;;25.23;13.05;;;;;;;7.41;100.00;102037.03;5052036;28;20044;-56
2021/12/12 11:46:09;;;;;;;26.60;13.07;;;;;;;7.36;100.00;102031.47;5051895;28;20059;-56
2021/12/12 11:48:56;;;;;;;28.67;13.20;;;;;;;7.44;100.00;102036.53;5051961;28;20043;-55
2021/12/12 11:51:29;;;;;;;26.10;13.52;;;;;;;7.41;100.00;102026.88;5051695;28;20099;-57
2021/12/12 11:54:16;;;;;;;25.45;12.13;;;;;;;7.40;100.00;102033.44;5052003;28;20116;-56